12:59
Airports
History
Links
Donate
Help keep this website running!
PayPal
Bitcoin
Information on this page is community maintained and may be outdated or inaccurate and is intended for reference only or PC simulator navigating.
Always use approved charts for navigating.
CYSE
Squamish
Squamish (CYSE)
Squamish, British Columbia, Canada
(U)
Lat/Lng:49° 46' 32.52" N / 123° 9' 25.93" W
49.7757 / -123.157204
Elevation:171'ft 52mMSL
ID / ICAO:CYSE
Runways:1
Longest:(14-32) 724.2m 2,376ft Asphalt
Distance To
Airport ID:
Nearby VORs <50NM
Nearby NDBs
Nearby WeatherUpdated 07-23-17 12:44 GMT
Nearby weather at CYVR, Vancouver Intl located 40.2 nautical miles from CYSE
Altimeter: 30.06
Visibility: 20.0 statute miles
Wind: 10 knots (290°)
Temp: 17°c 63°f
Humidity: 93.8%

METAR: CYVR 231244Z 29010KT 20SM FEW004 OVC044 17/16 A3006 RMK SF2SC6 SLP181 DENSITY ALT 200FT

(Powered by phpweather)
Runway 14 / 32
Dimensions:724.2 x 22.9m 2376' x 75'ft
Surface:Asphalt
Runway 14 [A]Runway 32 [B]
Heading:160°TH 340°TH
Lat:
Lng:
49° 46' 43.72"N
123° 9' 31.91"W
49° 46' 21.32"N
123° 9' 19.96"W
User Notes and Comments
Google Map
Nearby Airports
(U) Sechelt Gibsons 33.4 NM
AP3 SW 228°
(C) Vancouver Intl 40.2 NM
CYVR (WX) S 181°
(U) PEMBERTON 40.9 NM
CYPS NNE 27°
(C) Pitt Meadows 43.5 NM
CYPK SSE 152°
4 Harrison Lake Logging Camp 45.0 NM
SCHL E 92°
(C) Stave Lake 47.3 NM
SCSL ESE 118°
(C) Vancouver/boundary Bay 48.9 NM
CZBB S 172°
VFR Chart
Flight Planning at SkyVector.com